createdAt,value
2023-04-15T00:01:59.892Z,6.58
2023-04-15T00:04:28.399Z,7.17
2023-04-15T00:06:55.980Z,7.05
2023-04-15T00:09:23.916Z,6.54
2023-04-15T00:11:52.173Z,6.09
2023-04-15T00:14:21.041Z,5.75
2023-04-15T00:16:50.049Z,6.26
2023-04-15T00:19:17.553Z,6.36
2023-04-15T00:21:45.072Z,6.88
2023-04-15T00:24:12.675Z,6.30
2023-04-15T00:26:40.540Z,6.88
2023-04-15T00:29:08.172Z,6.92
2023-04-15T00:31:36.934Z,6.82
2023-04-15T00:34:04.680Z,6.20
2023-04-15T00:36:33.786Z,6.66
2023-04-15T00:39:01.552Z,6.93
2023-04-15T00:41:29.698Z,6.48
2023-04-15T00:43:57.203Z,6.97
2023-04-15T00:46:25.952Z,7.16
2023-04-15T00:48:55.398Z,7.21
2023-04-15T00:51:23.364Z,6.84
2023-04-15T00:53:51.871Z,6.59
2023-04-15T00:56:21.750Z,6.11
2023-04-15T00:58:49.268Z,6.40
2023-04-15T01:01:16.972Z,6.07
2023-04-15T01:03:44.984Z,6.32
2023-04-15T01:06:14.962Z,6.51
2023-04-15T01:08:42.469Z,6.20
2023-04-15T01:11:11.531Z,6.66
2023-04-15T01:13:39.298Z,6.72
2023-04-15T01:16:08.636Z,6.08
2023-04-15T01:18:38.574Z,6.01
2023-04-15T01:21:06.919Z,6.62
2023-04-15T01:23:38.585Z,6.09
2023-04-15T01:26:09.230Z,6.24
2023-04-15T01:28:37.273Z,6.44
2023-04-15T01:31:09.545Z,5.69
2023-04-15T01:33:37.467Z,6.03
2023-04-15T01:36:06.095Z,5.46
2023-04-15T01:38:34.156Z,5.44
2023-04-15T01:41:02.011Z,5.41
2023-04-15T01:43:30.831Z,5.47
2023-04-15T01:45:58.221Z,5.54
2023-04-15T01:48:26.048Z,5.50
2023-04-15T01:50:57.444Z,5.49
2023-04-15T01:53:25.702Z,5.55
2023-04-15T01:55:53.613Z,5.40
2023-04-15T01:58:22.450Z,5.62
2023-04-15T02:00:51.433Z,5.57
2023-04-15T02:03:19.068Z,5.31
2023-04-15T02:05:46.604Z,5.66
2023-04-15T02:08:14.443Z,5.84
2023-04-15T02:10:41.976Z,5.64
2023-04-15T02:13:09.424Z,5.45
2023-04-15T02:15:37.062Z,5.34
2023-04-15T02:18:06.648Z,5.28
2023-04-15T02:20:35.012Z,5.27
2023-04-15T02:23:03.016Z,5.46
2023-04-15T02:25:30.527Z,5.32
2023-04-15T02:27:58.677Z,5.47
2023-04-15T02:30:27.148Z,5.89
2023-04-15T02:32:54.762Z,5.63
2023-04-15T02:35:25.716Z,5.62
2023-04-15T02:37:53.217Z,5.59
2023-04-15T02:40:20.816Z,5.64
2023-04-15T02:42:48.366Z,5.85
2023-04-15T02:45:16.103Z,5.66
2023-04-15T02:47:44.365Z,6.34
2023-04-15T02:50:13.133Z,6.14
2023-04-15T02:52:42.562Z,5.91
2023-04-15T02:55:10.507Z,6.11
2023-04-15T02:57:39.115Z,5.46
2023-04-15T03:00:09.574Z,5.59
2023-04-15T03:02:38.392Z,5.66
2023-04-15T03:05:07.248Z,5.48
2023-04-15T03:07:34.723Z,5.35
2023-04-15T03:10:03.592Z,5.71
2023-04-15T03:12:31.026Z,5.38
2023-04-15T03:14:58.596Z,5.48
2023-04-15T03:17:26.148Z,5.31
2023-04-15T03:19:53.610Z,5.30
2023-04-15T03:22:21.308Z,5.68
2023-04-15T03:24:48.804Z,5.32
2023-04-15T03:27:17.734Z,5.37
2023-04-15T03:29:45.162Z,5.61
2023-04-15T03:32:12.807Z,5.28
2023-04-15T03:34:40.256Z,5.12
2023-04-15T03:37:07.788Z,5.51
2023-04-15T03:39:35.648Z,5.40
2023-04-15T03:42:03.692Z,5.55
2023-04-15T03:44:32.746Z,5.19
2023-04-15T03:47:00.326Z,5.29
2023-04-15T03:49:27.807Z,5.21
2023-04-15T03:51:55.693Z,5.19
2023-04-15T03:54:23.183Z,5.23
2023-04-15T03:56:50.726Z,5.18
2023-04-15T03:59:18.217Z,5.23
2023-04-15T04:01:47.277Z,5.19
2023-04-15T04:04:15.024Z,5.23
2023-04-15T04:06:42.662Z,5.34
2023-04-15T04:09:10.457Z,5.33
2023-04-15T04:11:38.532Z,5.26
2023-04-15T04:14:06.078Z,5.29
2023-04-15T04:16:33.593Z,5.38
2023-04-15T04:19:03.019Z,5.69
2023-04-15T04:21:31.211Z,5.48
2023-04-15T04:23:58.928Z,5.45
2023-04-15T04:26:29.185Z,5.30
2023-04-15T04:28:56.632Z,5.45
2023-04-15T04:31:24.218Z,5.14
2023-04-15T04:33:51.748Z,5.36
2023-04-15T04:36:20.665Z,5.19
2023-04-15T04:38:48.137Z,5.45
2023-04-15T04:41:16.297Z,5.55
2023-04-15T04:43:43.771Z,5.34
2023-04-15T04:46:11.953Z,5.35
2023-04-15T04:48:39.577Z,5.35
2023-04-15T04:51:07.658Z,5.40
2023-04-15T04:53:37.352Z,5.50
2023-04-15T04:56:05.313Z,5.34
2023-04-15T04:58:32.809Z,5.35
2023-04-15T05:01:00.394Z,5.36
2023-04-15T05:03:28.403Z,5.37
2023-04-15T05:05:55.957Z,5.21
2023-04-15T05:08:23.409Z,5.31
2023-04-15T05:10:52.186Z,5.19
2023-04-15T05:13:21.495Z,5.11
2023-04-15T05:15:48.964Z,5.48
2023-04-15T05:18:16.498Z,5.27
2023-04-15T05:20:44.088Z,5.32
2023-04-15T05:23:11.567Z,5.46
2023-04-15T05:25:39.037Z,5.48
2023-04-15T05:28:08.011Z,5.29
2023-04-15T05:30:35.532Z,5.27
2023-04-15T05:33:03.055Z,5.37
2023-04-15T05:35:30.803Z,5.38
2023-04-15T05:37:58.318Z,5.69
2023-04-15T05:40:25.870Z,5.69
2023-04-15T05:42:53.323Z,5.63
2023-04-15T05:45:22.322Z,5.62
2023-04-15T05:47:50.853Z,5.73
2023-04-15T05:50:18.533Z,5.63
2023-04-15T05:52:46.210Z,5.58
2023-04-15T05:55:14.234Z,5.60
2023-04-15T05:57:41.677Z,5.72
2023-04-15T06:00:10.176Z,5.76
2023-04-15T06:02:39.239Z,5.67
2023-04-15T06:05:09.829Z,5.76
2023-04-15T06:07:37.633Z,5.81
2023-04-15T06:10:05.839Z,5.77
2023-04-15T06:12:33.370Z,6.01
2023-04-15T06:15:00.831Z,6.02
2023-04-15T06:17:28.355Z,6.13
2023-04-15T06:19:57.190Z,5.90
2023-04-15T06:22:24.849Z,5.99
2023-04-15T06:24:52.954Z,6.03
2023-04-15T06:27:20.685Z,6.03
2023-04-15T06:29:48.107Z,6.15
2023-04-15T06:32:15.561Z,6.17
2023-04-15T06:34:43.010Z,6.36
2023-04-15T06:37:16.004Z,6.23
2023-04-15T06:39:44.535Z,6.40
2023-04-15T06:42:12.342Z,6.16
2023-04-15T06:44:39.983Z,6.40
2023-04-15T06:47:07.504Z,6.32
2023-04-15T06:49:34.967Z,6.46
2023-04-15T06:52:02.743Z,6.45
2023-04-15T06:54:31.543Z,6.41
2023-04-15T06:56:59.191Z,6.68
2023-04-15T06:59:27.258Z,6.66
2023-04-15T07:01:54.823Z,6.68
2023-04-15T07:04:22.316Z,6.63
2023-04-15T07:06:49.921Z,6.68
2023-04-15T07:09:17.383Z,6.61
2023-04-15T07:11:46.257Z,6.76
2023-04-15T07:14:13.584Z,6.90
2023-04-15T07:16:40.929Z,6.81
2023-04-15T07:19:08.302Z,6.89
2023-04-15T07:21:35.719Z,6.94
2023-04-15T07:24:03.405Z,6.98
2023-04-15T07:26:30.847Z,7.00
2023-04-15T07:28:59.860Z,6.99
2023-04-15T07:31:27.784Z,7.05
2023-04-15T07:33:55.328Z,7.10
2023-04-15T07:36:23.218Z,7.20
2023-04-15T07:38:50.676Z,7.36
2023-04-15T07:41:18.458Z,7.18
2023-04-15T07:43:45.955Z,7.27
2023-04-15T07:46:14.782Z,7.30
2023-04-15T07:48:42.625Z,7.43
2023-04-15T07:51:10.786Z,7.36
2023-04-15T07:53:38.531Z,7.53
2023-04-15T07:56:06.965Z,7.47
2023-04-15T07:58:34.414Z,7.53
2023-04-15T08:01:01.992Z,7.60
2023-04-15T08:03:30.875Z,7.59
2023-04-15T08:05:58.681Z,7.59
2023-04-15T08:08:26.284Z,7.53
2023-04-15T08:10:53.841Z,7.74
2023-04-15T08:13:21.700Z,7.82
2023-04-15T08:16:19.178Z,7.70
2023-04-15T08:18:48.567Z,7.72
2023-04-15T08:21:16.624Z,7.72
2023-04-15T08:23:44.637Z,7.78
2023-04-15T08:26:12.761Z,7.75
2023-04-15T08:28:42.025Z,7.83
2023-04-15T08:31:09.687Z,7.91
2023-04-15T08:33:37.321Z,7.76
2023-04-15T08:36:07.454Z,7.45
2023-04-15T08:38:35.054Z,7.44
2023-04-15T08:41:08.237Z,7.15
2023-04-15T08:43:38.832Z,7.38
2023-04-15T08:46:06.976Z,7.22
2023-04-15T08:48:35.668Z,7.38
2023-04-15T08:51:03.628Z,7.11
2023-04-15T08:53:32.553Z,7.03
2023-04-15T08:56:05.088Z,7.12
2023-04-15T08:58:33.431Z,7.16
2023-04-15T09:01:01.501Z,7.06
2023-04-15T09:03:29.824Z,6.99
2023-04-15T09:05:58.395Z,6.79
2023-04-15T09:08:25.916Z,6.91
2023-04-15T09:10:54.838Z,6.99
2023-04-15T09:13:22.152Z,7.01
2023-04-15T09:15:50.085Z,7.11
2023-04-15T09:18:29.069Z,7.04
2023-04-15T09:20:56.939Z,7.06
2023-04-15T09:23:24.492Z,6.86
2023-04-15T09:25:51.956Z,6.92
2023-04-15T09:28:27.250Z,6.85
2023-04-15T09:30:57.535Z,6.94
2023-04-15T09:33:26.161Z,6.92
2023-04-15T09:36:01.747Z,7.08
2023-04-15T09:38:29.568Z,6.84
2023-04-15T09:40:57.089Z,6.79
2023-04-15T09:43:39.186Z,6.77
2023-04-15T09:46:06.843Z,6.98
2023-04-15T09:48:34.411Z,6.78
2023-04-15T09:51:02.928Z,6.88
2023-04-15T09:53:31.893Z,7.08
2023-04-15T09:56:02.278Z,7.06
2023-04-15T09:58:33.529Z,7.19
2023-04-15T10:01:02.391Z,6.87
2023-04-15T10:03:31.064Z,6.90
2023-04-15T10:06:00.246Z,6.87
2023-04-15T10:08:30.013Z,7.13
2023-04-15T10:10:57.970Z,6.99
2023-04-15T10:13:28.375Z,6.82
2023-04-15T10:16:00.380Z,6.77
2023-04-15T10:18:29.148Z,6.82
2023-04-15T10:20:56.908Z,6.88
2023-04-15T10:23:25.629Z,6.75
2023-04-15T10:25:54.638Z,6.66
2023-04-15T10:28:23.485Z,6.45
2023-04-15T10:30:51.012Z,6.54
2023-04-15T10:33:22.769Z,6.38
2023-04-15T10:35:51.651Z,6.46
2023-04-15T10:38:36.308Z,6.57
2023-04-15T10:41:20.123Z,6.43
2023-04-15T10:43:52.752Z,6.60
2023-04-15T10:46:23.065Z,6.84
2023-04-15T10:48:53.092Z,6.76
2023-04-15T10:51:31.849Z,6.66
2023-04-15T10:54:01.005Z,6.40
2023-04-15T10:56:29.968Z,6.64
2023-04-15T10:59:00.178Z,6.63
2023-04-15T11:01:52.788Z,6.84
2023-04-15T11:08:03.038Z,7.08
2023-04-15T11:11:33.810Z,7.26
2023-04-15T11:14:43.292Z,6.77
2023-04-15T11:21:32.942Z,6.89
2023-04-15T11:25:33.384Z,6.81
2023-04-15T11:35:51.165Z,6.81
2023-04-15T11:42:14.845Z,7.14
2023-04-15T11:45:22.380Z,7.00
2023-04-15T11:52:00.292Z,6.91
2023-04-15T12:10:20.876Z,7.18
2023-04-15T12:13:18.947Z,7.13
2023-04-15T12:16:19.641Z,7.04
2023-04-15T12:22:48.634Z,7.07
2023-04-15T12:29:43.468Z,7.36
2023-04-15T12:32:43.432Z,7.37
2023-04-15T12:36:29.793Z,7.33
2023-04-15T12:40:17.463Z,7.03
2023-04-15T12:43:15.156Z,7.15
2023-04-15T12:46:34.308Z,7.19
2023-04-15T12:50:06.665Z,7.05
2023-04-15T12:53:13.909Z,6.97
2023-04-15T12:56:28.079Z,7.03
2023-04-15T13:05:33.345Z,7.37
2023-04-15T13:08:40.438Z,7.30
2023-04-15T13:18:06.845Z,7.47
2023-04-15T13:24:47.878Z,7.13
2023-04-15T13:27:46.076Z,7.27
2023-04-15T13:31:03.227Z,7.18
2023-04-15T13:37:22.286Z,7.11
2023-04-15T13:46:36.258Z,7.34
2023-04-15T13:49:41.347Z,7.27
2023-04-15T13:52:56.114Z,7.27
2023-04-15T13:56:05.670Z,7.23
2023-04-15T13:59:18.073Z,7.18
2023-04-15T14:02:32.974Z,7.24
2023-04-15T14:05:31.663Z,7.11
2023-04-15T14:09:00.525Z,7.13
2023-04-15T14:12:09.751Z,7.22
2023-04-15T14:15:03.913Z,7.06
2023-04-15T14:17:55.282Z,7.00
2023-04-15T14:21:07.753Z,6.98
2023-04-15T14:27:21.170Z,6.99
2023-04-15T14:30:27.334Z,7.27
2023-04-15T14:33:51.227Z,7.21
2023-04-15T14:44:02.172Z,7.20
2023-04-15T14:47:27.043Z,7.15
2023-04-15T14:59:51.817Z,7.04
2023-04-15T15:03:20.841Z,7.07
2023-04-15T15:13:35.317Z,7.05
2023-04-15T15:19:37.278Z,7.06
2023-04-15T15:26:17.343Z,6.93
2023-04-15T15:28:51.634Z,6.99
2023-04-15T15:31:19.161Z,6.86
2023-04-15T15:33:46.711Z,7.00
2023-04-15T15:36:15.735Z,6.88
2023-04-15T15:38:56.211Z,6.87
2023-04-15T15:41:23.916Z,6.90
2023-04-15T15:43:51.409Z,7.08
2023-04-15T15:46:19.110Z,6.98
2023-04-15T15:48:46.718Z,7.07
2023-04-15T15:51:22.052Z,6.75
2023-04-15T15:57:12.032Z,6.88
2023-04-15T15:59:41.183Z,6.73
2023-04-15T16:02:13.054Z,6.71
2023-04-15T16:04:56.696Z,6.93
2023-04-15T16:07:28.395Z,7.06
2023-04-15T16:10:22.951Z,6.59
2023-04-15T16:12:50.557Z,6.51
2023-04-15T16:15:18.071Z,6.67
2023-04-15T16:17:45.785Z,6.50
2023-04-15T16:20:13.345Z,6.53
2023-04-15T16:22:42.195Z,6.70
2023-04-15T16:25:10.529Z,6.79
2023-04-15T16:27:50.348Z,6.77
2023-04-15T16:30:25.086Z,6.91
2023-04-15T16:32:53.072Z,6.87
2023-04-15T16:35:20.957Z,7.04
2023-04-15T16:37:49.799Z,7.06
2023-04-15T16:40:17.549Z,6.87
2023-04-15T16:42:45.324Z,6.95
2023-04-15T16:45:12.851Z,6.91
2023-04-15T16:47:40.454Z,6.88
2023-04-15T16:50:11.541Z,7.00
2023-04-15T16:52:38.988Z,7.21
2023-04-15T16:55:08.326Z,7.06
2023-04-15T16:57:53.090Z,6.91
2023-04-15T17:00:23.805Z,7.17
2023-04-15T17:02:51.600Z,6.81
2023-04-15T17:05:19.438Z,6.69
2023-04-15T17:07:46.942Z,6.84
2023-04-15T17:10:16.214Z,6.97
2023-04-15T17:12:43.782Z,6.85
2023-04-15T17:15:11.404Z,6.84
2023-04-15T17:17:39.015Z,6.94
2023-04-15T17:20:07.703Z,6.85
2023-04-15T17:22:35.242Z,6.90
2023-04-15T17:25:03.111Z,6.69
2023-04-15T17:27:32.179Z,6.68
2023-04-15T17:29:59.675Z,6.73
2023-04-15T17:32:31.541Z,6.73
2023-04-15T17:34:59.288Z,6.99
2023-04-15T17:37:26.859Z,6.65
2023-04-15T17:39:54.361Z,6.78
2023-04-15T17:42:22.891Z,6.63
2023-04-15T17:44:51.732Z,6.51
2023-04-15T17:47:19.223Z,6.51
2023-04-15T17:49:47.185Z,6.52
2023-04-15T17:52:14.775Z,6.71
2023-04-15T17:54:42.240Z,6.68
2023-04-15T17:57:10.176Z,6.58
2023-04-15T17:59:37.816Z,6.64
2023-04-15T18:02:06.746Z,6.51
2023-04-15T18:04:34.406Z,6.44
2023-04-15T18:07:01.990Z,6.42
2023-04-15T18:09:31.790Z,6.49
2023-04-15T18:11:59.249Z,6.68
2023-04-15T18:14:34.212Z,6.58
2023-04-15T18:17:02.923Z,6.50
2023-04-15T18:19:32.025Z,6.55
2023-04-15T18:22:00.835Z,6.70
2023-04-15T18:24:28.570Z,6.58
2023-04-15T18:26:56.311Z,6.64
2023-04-15T18:29:23.941Z,6.52
2023-04-15T18:31:51.533Z,6.49
2023-04-15T18:34:19.115Z,6.41
2023-04-15T18:36:48.053Z,6.51
2023-04-15T18:39:16.865Z,6.43
2023-04-15T18:41:44.181Z,6.39
2023-04-15T18:44:11.630Z,6.39
2023-04-15T18:46:39.154Z,6.36
2023-04-15T18:49:07.187Z,6.38
2023-04-15T18:51:34.959Z,6.35
2023-04-15T18:54:03.798Z,6.36
2023-04-15T18:56:31.589Z,6.42
2023-04-15T18:59:25.405Z,6.38
2023-04-15T19:01:46.797Z,6.38
2023-04-15T19:04:14.636Z,6.44
2023-04-15T19:06:42.240Z,6.36
2023-04-15T19:09:11.209Z,6.59
2023-04-15T19:11:38.980Z,6.62
2023-04-15T19:14:06.578Z,6.30
2023-04-15T19:16:34.167Z,6.26
2023-04-15T19:19:01.834Z,6.45
2023-04-15T19:21:32.577Z,6.47
2023-04-15T19:24:01.148Z,6.44
2023-04-15T19:26:30.098Z,6.51
2023-04-15T19:28:58.841Z,6.42
2023-04-15T19:31:26.491Z,6.39
2023-04-15T19:33:54.000Z,6.31
2023-04-15T19:36:21.739Z,6.49
2023-04-15T19:38:49.200Z,6.70
2023-04-15T19:41:16.784Z,6.45
2023-04-15T19:43:45.752Z,6.28
2023-04-15T19:46:13.680Z,6.33
2023-04-15T19:48:41.225Z,6.34
2023-04-15T19:51:08.733Z,6.22
2023-04-15T19:53:36.447Z,6.48
2023-04-15T19:56:04.209Z,6.39
2023-04-15T19:58:32.445Z,6.40
2023-04-15T20:01:02.217Z,6.16
2023-04-15T20:03:30.147Z,6.17
2023-04-15T20:05:57.953Z,6.36
2023-04-15T20:08:25.449Z,6.30
2023-04-15T20:10:53.174Z,6.20
2023-04-15T20:13:20.637Z,6.28
2023-04-15T20:15:48.092Z,6.42
2023-04-15T20:18:16.995Z,6.48
2023-04-15T20:20:44.717Z,6.52
2023-04-15T20:23:12.338Z,6.26
2023-04-15T20:25:39.885Z,6.54
2023-04-15T20:28:07.422Z,6.39
2023-04-15T20:30:35.353Z,6.62
2023-04-15T20:33:02.946Z,6.40
2023-04-15T20:35:34.752Z,6.39
2023-04-15T20:38:02.658Z,6.27
2023-04-15T20:40:30.253Z,6.23
2023-04-15T20:42:57.816Z,6.31
2023-04-15T20:45:25.375Z,6.27
2023-04-15T20:47:54.607Z,6.35
2023-04-15T20:50:22.269Z,6.35
2023-04-15T20:52:51.114Z,6.53
2023-04-15T20:55:18.483Z,6.78
2023-04-15T20:57:46.359Z,6.64
2023-04-15T21:00:14.182Z,6.69
2023-04-15T21:02:41.878Z,6.30
2023-04-15T21:05:09.870Z,6.44
2023-04-15T21:07:37.323Z,6.40
2023-04-15T21:10:07.286Z,6.46
2023-04-15T21:12:34.734Z,6.46
2023-04-15T21:15:02.237Z,6.74
2023-04-15T21:17:29.922Z,6.48
2023-04-15T21:19:57.558Z,6.37
2023-04-15T21:22:25.160Z,6.65
2023-04-15T21:24:52.771Z,6.52
2023-04-15T21:27:21.761Z,6.38
2023-04-15T21:29:49.249Z,6.39
2023-04-15T21:32:17.011Z,6.24
2023-04-15T21:34:44.749Z,6.43
2023-04-15T21:37:12.289Z,6.50
2023-04-15T21:39:39.797Z,6.35
2023-04-15T21:42:07.333Z,6.40
2023-04-15T21:44:36.161Z,6.31
2023-04-15T21:47:03.504Z,6.35
2023-04-15T21:49:31.854Z,6.36
2023-04-15T21:52:00.966Z,6.34
2023-04-15T21:54:28.849Z,6.50
2023-04-15T21:56:56.914Z,6.45
2023-04-15T21:59:24.577Z,6.42
2023-04-15T22:01:53.596Z,6.31
2023-04-15T22:04:21.357Z,6.31
2023-04-15T22:06:48.935Z,6.37
2023-04-15T22:09:16.563Z,6.39
2023-04-15T22:11:44.373Z,6.34
2023-04-15T22:14:12.133Z,6.36
2023-04-15T22:16:39.591Z,6.34
2023-04-15T22:19:08.923Z,6.27
2023-04-15T22:21:36.473Z,6.49
2023-04-15T22:24:33.751Z,6.64
2023-04-15T22:26:51.584Z,6.40
2023-04-15T22:29:19.056Z,6.50
2023-04-15T22:31:46.777Z,6.42
2023-04-15T22:34:21.048Z,6.44
2023-04-15T22:36:48.612Z,6.41
2023-04-15T22:39:16.615Z,6.48
2023-04-15T22:41:44.766Z,6.38
2023-04-15T22:44:12.779Z,6.57
2023-04-15T22:46:40.620Z,6.56
2023-04-15T22:49:09.448Z,6.46
2023-04-15T22:51:38.309Z,6.60
2023-04-15T22:54:05.758Z,6.44
2023-04-15T22:56:33.271Z,6.41
2023-04-15T22:59:00.779Z,6.63
2023-04-15T23:01:28.328Z,6.48
2023-04-15T23:04:05.175Z,6.43
2023-04-15T23:06:34.015Z,6.44
2023-04-15T23:09:02.975Z,6.46
2023-04-15T23:11:30.522Z,6.42
2023-04-15T23:13:58.199Z,6.50
2023-04-15T23:16:25.946Z,6.42
2023-04-15T23:18:53.445Z,6.41
2023-04-15T23:21:20.999Z,6.37
2023-04-15T23:23:48.466Z,6.48
2023-04-15T23:26:17.290Z,6.49
2023-04-15T23:28:44.652Z,6.49
2023-04-15T23:31:13.528Z,6.56
2023-04-15T23:33:41.069Z,6.59
2023-04-15T23:36:08.679Z,6.47
2023-04-15T23:38:36.168Z,6.40
2023-04-15T23:41:03.654Z,6.39
2023-04-15T23:43:32.493Z,6.42
2023-04-15T23:46:00.020Z,6.34
2023-04-15T23:48:27.488Z,6.32
2023-04-15T23:50:54.922Z,6.52
2023-04-15T23:53:22.512Z,6.49
2023-04-15T23:55:50.064Z,6.49
2023-04-15T23:58:17.506Z,6.71
